sensor_id;sensor_type;location;lat;lon;timestamp;P1;durP1;ratioP1;P2;durP2;ratioP2
30515;SDS011;17297;54.022;10.760;2022-09-13T00:00:39;1.52;;;1.40;;
30515;SDS011;17297;54.022;10.760;2022-09-13T00:03:05;1.33;;;1.23;;
30515;SDS011;17297;54.022;10.760;2022-09-13T00:05:31;1.45;;;1.35;;
30515;SDS011;17297;54.022;10.760;2022-09-13T00:07:57;1.30;;;1.20;;
30515;SDS011;17297;54.022;10.760;2022-09-13T00:10:23;1.92;;;1.73;;
30515;SDS011;17297;54.022;10.760;2022-09-13T00:12:49;1.70;;;1.60;;
30515;SDS011;17297;54.022;10.760;2022-09-13T00:15:15;1.38;;;1.25;;
30515;SDS011;17297;54.022;10.760;2022-09-13T00:17:40;1.60;;;1.50;;
30515;SDS011;17297;54.022;10.760;2022-09-13T00:20:06;1.42;;;1.33;;
30515;SDS011;17297;54.022;10.760;2022-09-13T00:22:32;1.95;;;1.85;;
30515;SDS011;17297;54.022;10.760;2022-09-13T00:24:58;1.52;;;1.35;;
30515;SDS011;17297;54.022;10.760;2022-09-13T00:27:24;1.60;;;1.50;;
30515;SDS011;17297;54.022;10.760;2022-09-13T00:29:49;1.50;;;1.40;;
30515;SDS011;17297;54.022;10.760;2022-09-13T00:32:15;1.40;;;1.30;;
30515;SDS011;17297;54.022;10.760;2022-09-13T00:34:41;1.42;;;1.33;;
30515;SDS011;17297;54.022;10.760;2022-09-13T00:37:06;1.30;;;1.20;;
30515;SDS011;17297;54.022;10.760;2022-09-13T00:39:32;1.50;;;1.40;;
30515;SDS011;17297;54.022;10.760;2022-09-13T00:41:58;1.35;;;1.25;;
30515;SDS011;17297;54.022;10.760;2022-09-13T00:47:26;1.15;;;1.05;;
30515;SDS011;17297;54.022;10.760;2022-09-13T00:50:44;1.40;;;1.30;;
30515;SDS011;17297;54.022;10.760;2022-09-13T00:58:12;1.95;;;1.40;;
30515;SDS011;17297;54.022;10.760;2022-09-13T01:00:46;1.48;;;1.38;;
30515;SDS011;17297;54.022;10.760;2022-09-13T01:03:12;1.63;;;1.52;;
30515;SDS011;17297;54.022;10.760;2022-09-13T01:05:43;1.98;;;1.70;;
30515;SDS011;17297;54.022;10.760;2022-09-13T01:08:13;2.40;;;2.10;;
30515;SDS011;17297;54.022;10.760;2022-09-13T01:10:44;1.52;;;1.42;;
30515;SDS011;17297;54.022;10.760;2022-09-13T01:13:11;1.60;;;1.50;;
30515;SDS011;17297;54.022;10.760;2022-09-13T01:15:41;1.92;;;1.73;;
30515;SDS011;17297;54.022;10.760;2022-09-13T01:18:08;2.08;;;1.88;;
30515;SDS011;17297;54.022;10.760;2022-09-13T01:20:46;1.90;;;1.77;;
30515;SDS011;17297;54.022;10.760;2022-09-13T01:26:41;3.15;;;1.80;;
30515;SDS011;17297;54.022;10.760;2022-09-13T01:37:43;2.13;;;1.83;;
30515;SDS011;17297;54.022;10.760;2022-09-13T01:46:00;1.73;;;1.63;;
30515;SDS011;17297;54.022;10.760;2022-09-13T01:51:15;1.85;;;1.70;;
30515;SDS011;17297;54.022;10.760;2022-09-13T01:53:57;2.17;;;1.90;;
30515;SDS011;17297;54.022;10.760;2022-09-13T01:59:42;1.90;;;1.80;;
30515;SDS011;17297;54.022;10.760;2022-09-13T02:02:20;2.05;;;1.95;;
30515;SDS011;17297;54.022;10.760;2022-09-13T02:04:53;2.08;;;1.88;;
30515;SDS011;17297;54.022;10.760;2022-09-13T02:07:25;2.15;;;2.00;;
30515;SDS011;17297;54.022;10.760;2022-09-13T02:09:58;1.85;;;1.75;;
30515;SDS011;17297;54.022;10.760;2022-09-13T02:12:27;3.15;;;2.08;;
30515;SDS011;17297;54.022;10.760;2022-09-13T02:15:09;1.92;;;1.83;;
30515;SDS011;17297;54.022;10.760;2022-09-13T02:17:40;2.78;;;1.77;;
30515;SDS011;17297;54.022;10.760;2022-09-13T02:22:52;2.78;;;1.75;;
30515;SDS011;17297;54.022;10.760;2022-09-13T02:25:21;2.30;;;2.10;;
30515;SDS011;17297;54.022;10.760;2022-09-13T02:27:50;2.40;;;2.15;;
30515;SDS011;17297;54.022;10.760;2022-09-13T02:30:21;2.30;;;2.00;;
30515;SDS011;17297;54.022;10.760;2022-09-13T02:32:57;1.80;;;1.67;;
30515;SDS011;17297;54.022;10.760;2022-09-13T02:35:30;2.20;;;2.05;;
30515;SDS011;17297;54.022;10.760;2022-09-13T02:38:02;2.97;;;2.75;;
30515;SDS011;17297;54.022;10.760;2022-09-13T02:40:52;2.25;;;1.98;;
30515;SDS011;17297;54.022;10.760;2022-09-13T02:43:33;2.38;;;2.17;;
30515;SDS011;17297;54.022;10.760;2022-09-13T02:54:22;2.88;;;2.58;;
30515;SDS011;17297;54.022;10.760;2022-09-13T02:57:04;1.80;;;1.67;;
30515;SDS011;17297;54.022;10.760;2022-09-13T02:59:35;2.05;;;1.88;;
30515;SDS011;17297;54.022;10.760;2022-09-13T03:02:08;3.25;;;2.88;;
30515;SDS011;17297;54.022;10.760;2022-09-13T03:04:38;2.30;;;2.10;;
30515;SDS011;17297;54.022;10.760;2022-09-13T03:07:05;2.30;;;2.10;;
30515;SDS011;17297;54.022;10.760;2022-09-13T03:09:34;2.90;;;2.65;;
30515;SDS011;17297;54.022;10.760;2022-09-13T03:14:54;2.50;;;2.30;;
30515;SDS011;17297;54.022;10.760;2022-09-13T03:20:11;2.65;;;2.42;;
30515;SDS011;17297;54.022;10.760;2022-09-13T03:23:09;2.55;;;2.33;;
30515;SDS011;17297;54.022;10.760;2022-09-13T03:31:32;2.35;;;2.15;;
30515;SDS011;17297;54.022;10.760;2022-09-13T03:34:16;2.47;;;2.08;;
30515;SDS011;17297;54.022;10.760;2022-09-13T03:36:46;2.38;;;2.10;;
30515;SDS011;17297;54.022;10.760;2022-09-13T03:42:21;2.80;;;2.50;;
30515;SDS011;17297;54.022;10.760;2022-09-13T03:44:52;3.42;;;2.90;;
30515;SDS011;17297;54.022;10.760;2022-09-13T03:47:20;2.90;;;2.55;;
30515;SDS011;17297;54.022;10.760;2022-09-13T03:49:50;2.80;;;2.33;;
30515;SDS011;17297;54.022;10.760;2022-09-13T03:52:16;3.05;;;2.75;;
30515;SDS011;17297;54.022;10.760;2022-09-13T03:54:42;2.65;;;2.45;;
30515;SDS011;17297;54.022;10.760;2022-09-13T03:59:34;2.75;;;2.35;;
30515;SDS011;17297;54.022;10.760;2022-09-13T04:02:03;3.38;;;2.75;;
30515;SDS011;17297;54.022;10.760;2022-09-13T04:04:30;2.60;;;2.38;;
30515;SDS011;17297;54.022;10.760;2022-09-13T04:06:57;4.25;;;3.10;;
30515;SDS011;17297;54.022;10.760;2022-09-13T04:09:25;3.15;;;2.90;;
30515;SDS011;17297;54.022;10.760;2022-09-13T04:11:50;3.00;;;2.75;;
30515;SDS011;17297;54.022;10.760;2022-09-13T04:14:16;3.80;;;2.90;;
30515;SDS011;17297;54.022;10.760;2022-09-13T04:16:41;3.15;;;2.60;;
30515;SDS011;17297;54.022;10.760;2022-09-13T04:19:07;3.55;;;2.97;;
30515;SDS011;17297;54.022;10.760;2022-09-13T04:21:32;3.65;;;2.95;;
30515;SDS011;17297;54.022;10.760;2022-09-13T04:23:57;3.17;;;2.67;;
30515;SDS011;17297;54.022;10.760;2022-09-13T04:26:23;3.85;;;2.92;;
30515;SDS011;17297;54.022;10.760;2022-09-13T04:28:48;3.97;;;3.65;;
30515;SDS011;17297;54.022;10.760;2022-09-13T04:31:13;3.47;;;2.97;;
30515;SDS011;17297;54.022;10.760;2022-09-13T04:33:39;3.15;;;2.85;;
30515;SDS011;17297;54.022;10.760;2022-09-13T04:36:05;3.90;;;2.88;;
30515;SDS011;17297;54.022;10.760;2022-09-13T04:38:31;4.35;;;3.95;;
30515;SDS011;17297;54.022;10.760;2022-09-13T04:40:56;4.05;;;3.65;;
30515;SDS011;17297;54.022;10.760;2022-09-13T04:43:22;4.00;;;3.60;;
30515;SDS011;17297;54.022;10.760;2022-09-13T04:45:48;4.55;;;4.15;;
30515;SDS011;17297;54.022;10.760;2022-09-13T04:48:14;4.40;;;3.50;;
30515;SDS011;17297;54.022;10.760;2022-09-13T04:50:40;4.50;;;3.63;;
30515;SDS011;17297;54.022;10.760;2022-09-13T04:53:05;4.55;;;3.50;;
30515;SDS011;17297;54.022;10.760;2022-09-13T04:55:30;5.00;;;3.25;;
30515;SDS011;17297;54.022;10.760;2022-09-13T04:57:56;5.20;;;4.35;;
30515;SDS011;17297;54.022;10.760;2022-09-13T05:00:22;5.35;;;4.05;;
30515;SDS011;17297;54.022;10.760;2022-09-13T05:02:53;4.20;;;3.80;;
30515;SDS011;17297;54.022;10.760;2022-09-13T05:05:20;5.55;;;3.85;;
30515;SDS011;17297;54.022;10.760;2022-09-13T05:07:48;4.47;;;4.03;;
30515;SDS011;17297;54.022;10.760;2022-09-13T05:10:14;5.10;;;4.60;;
30515;SDS011;17297;54.022;10.760;2022-09-13T05:12:39;4.78;;;3.60;;
30515;SDS011;17297;54.022;10.760;2022-09-13T05:15:05;5.22;;;4.65;;
30515;SDS011;17297;54.022;10.760;2022-09-13T05:17:31;6.30;;;3.95;;
30515;SDS011;17297;54.022;10.760;2022-09-13T05:19:56;4.82;;;3.80;;
30515;SDS011;17297;54.022;10.760;2022-09-13T05:22:21;4.70;;;4.30;;
30515;SDS011;17297;54.022;10.760;2022-09-13T05:24:47;7.53;;;4.80;;
30515;SDS011;17297;54.022;10.760;2022-09-13T05:27:12;4.75;;;4.25;;
30515;SDS011;17297;54.022;10.760;2022-09-13T05:29:37;5.28;;;4.32;;
30515;SDS011;17297;54.022;10.760;2022-09-13T05:32:03;7.45;;;4.43;;
30515;SDS011;17297;54.022;10.760;2022-09-13T05:34:28;6.15;;;4.25;;
30515;SDS011;17297;54.022;10.760;2022-09-13T05:36:54;5.00;;;4.25;;
30515;SDS011;17297;54.022;10.760;2022-09-13T05:39:19;5.38;;;4.53;;
30515;SDS011;17297;54.022;10.760;2022-09-13T05:41:46;4.75;;;3.95;;
30515;SDS011;17297;54.022;10.760;2022-09-13T05:44:12;6.72;;;6.00;;
30515;SDS011;17297;54.022;10.760;2022-09-13T05:46:37;5.68;;;5.13;;
30515;SDS011;17297;54.022;10.760;2022-09-13T05:49:02;5.30;;;4.63;;
30515;SDS011;17297;54.022;10.760;2022-09-13T05:51:28;7.00;;;5.72;;
30515;SDS011;17297;54.022;10.760;2022-09-13T05:53:53;6.30;;;5.50;;
30515;SDS011;17297;54.022;10.760;2022-09-13T05:56:20;6.50;;;5.53;;
30515;SDS011;17297;54.022;10.760;2022-09-13T05:58:48;7.03;;;5.82;;
30515;SDS011;17297;54.022;10.760;2022-09-13T06:01:15;9.30;;;7.35;;
30515;SDS011;17297;54.022;10.760;2022-09-13T06:03:45;9.15;;;5.30;;
30515;SDS011;17297;54.022;10.760;2022-09-13T06:06:12;6.82;;;5.32;;
30515;SDS011;17297;54.022;10.760;2022-09-13T06:08:37;6.65;;;5.55;;
30515;SDS011;17297;54.022;10.760;2022-09-13T06:11:06;8.52;;;6.47;;
30515;SDS011;17297;54.022;10.760;2022-09-13T06:13:34;6.75;;;4.70;;
30515;SDS011;17297;54.022;10.760;2022-09-13T06:16:00;7.03;;;4.85;;
30515;SDS011;17297;54.022;10.760;2022-09-13T06:18:27;6.97;;;4.75;;
30515;SDS011;17297;54.022;10.760;2022-09-13T06:21:01;5.07;;;4.28;;
30515;SDS011;17297;54.022;10.760;2022-09-13T06:23:29;5.57;;;4.60;;
30515;SDS011;17297;54.022;10.760;2022-09-13T06:25:59;5.63;;;4.95;;
30515;SDS011;17297;54.022;10.760;2022-09-13T06:28:25;6.38;;;4.90;;
30515;SDS011;17297;54.022;10.760;2022-09-13T06:30:51;5.03;;;4.22;;
30515;SDS011;17297;54.022;10.760;2022-09-13T06:33:16;5.65;;;3.95;;
30515;SDS011;17297;54.022;10.760;2022-09-13T06:35:42;5.60;;;4.35;;
30515;SDS011;17297;54.022;10.760;2022-09-13T06:38:07;6.97;;;5.03;;
30515;SDS011;17297;54.022;10.760;2022-09-13T06:40:32;5.43;;;3.90;;
30515;SDS011;17297;54.022;10.760;2022-09-13T06:42:58;6.60;;;3.92;;
30515;SDS011;17297;54.022;10.760;2022-09-13T06:45:23;4.10;;;3.55;;
30515;SDS011;17297;54.022;10.760;2022-09-13T06:47:48;5.07;;;3.45;;
30515;SDS011;17297;54.022;10.760;2022-09-13T06:50:14;5.65;;;3.70;;
30515;SDS011;17297;54.022;10.760;2022-09-13T06:52:39;4.38;;;3.35;;
30515;SDS011;17297;54.022;10.760;2022-09-13T06:55:04;4.00;;;3.25;;
30515;SDS011;17297;54.022;10.760;2022-09-13T06:57:30;6.05;;;4.28;;
30515;SDS011;17297;54.022;10.760;2022-09-13T06:59:55;5.50;;;4.22;;
30515;SDS011;17297;54.022;10.760;2022-09-13T07:02:21;5.18;;;4.07;;
30515;SDS011;17297;54.022;10.760;2022-09-13T07:04:46;4.10;;;3.70;;
30515;SDS011;17297;54.022;10.760;2022-09-13T07:07:11;5.15;;;3.97;;
30515;SDS011;17297;54.022;10.760;2022-09-13T07:09:37;4.22;;;3.53;;
30515;SDS011;17297;54.022;10.760;2022-09-13T07:12:03;5.13;;;3.45;;
30515;SDS011;17297;54.022;10.760;2022-09-13T07:14:29;4.05;;;3.17;;
30515;SDS011;17297;54.022;10.760;2022-09-13T07:16:54;4.72;;;3.78;;
30515;SDS011;17297;54.022;10.760;2022-09-13T07:19:21;5.60;;;3.70;;
30515;SDS011;17297;54.022;10.760;2022-09-13T07:21:51;4.97;;;3.33;;
30515;SDS011;17297;54.022;10.760;2022-09-13T07:24:17;3.97;;;3.45;;
30515;SDS011;17297;54.022;10.760;2022-09-13T07:26:44;3.08;;;2.63;;
30515;SDS011;17297;54.022;10.760;2022-09-13T07:29:12;3.67;;;2.50;;
30515;SDS011;17297;54.022;10.760;2022-09-13T07:31:44;4.13;;;2.67;;
30515;SDS011;17297;54.022;10.760;2022-09-13T07:34:15;3.40;;;2.38;;
30515;SDS011;17297;54.022;10.760;2022-09-13T07:36:45;4.40;;;2.22;;
30515;SDS011;17297;54.022;10.760;2022-09-13T07:39:11;4.70;;;2.60;;
30515;SDS011;17297;54.022;10.760;2022-09-13T07:41:37;4.68;;;1.73;;
30515;SDS011;17297;54.022;10.760;2022-09-13T07:44:03;2.95;;;2.15;;
30515;SDS011;17297;54.022;10.760;2022-09-13T07:46:30;3.45;;;1.80;;
30515;SDS011;17297;54.022;10.760;2022-09-13T07:48:57;3.40;;;1.63;;
30515;SDS011;17297;54.022;10.760;2022-09-13T07:51:25;2.50;;;1.45;;
30515;SDS011;17297;54.022;10.760;2022-09-13T07:53:54;3.25;;;1.70;;
30515;SDS011;17297;54.022;10.760;2022-09-13T07:56:22;2.55;;;1.23;;
30515;SDS011;17297;54.022;10.760;2022-09-13T07:58:52;3.05;;;1.95;;
30515;SDS011;17297;54.022;10.760;2022-09-13T08:03:55;1.67;;;1.20;;
30515;SDS011;17297;54.022;10.760;2022-09-13T08:06:22;1.77;;;1.00;;
30515;SDS011;17297;54.022;10.760;2022-09-13T08:08:49;2.65;;;1.88;;
30515;SDS011;17297;54.022;10.760;2022-09-13T08:11:26;1.92;;;1.30;;
30515;SDS011;17297;54.022;10.760;2022-09-13T08:13:54;3.13;;;1.58;;
30515;SDS011;17297;54.022;10.760;2022-09-13T08:16:20;3.15;;;1.20;;
30515;SDS011;17297;54.022;10.760;2022-09-13T08:18:51;1.10;;;1.00;;
30515;SDS011;17297;54.022;10.760;2022-09-13T08:21:18;2.53;;;1.00;;
30515;SDS011;17297;54.022;10.760;2022-09-13T08:23:45;4.75;;;1.10;;
30515;SDS011;17297;54.022;10.760;2022-09-13T08:26:10;2.33;;;1.13;;
30515;SDS011;17297;54.022;10.760;2022-09-13T08:28:37;2.58;;;0.93;;
30515;SDS011;17297;54.022;10.760;2022-09-13T08:31:14;1.23;;;0.75;;
30515;SDS011;17297;54.022;10.760;2022-09-13T08:33:42;2.33;;;1.08;;
30515;SDS011;17297;54.022;10.760;2022-09-13T08:36:09;3.40;;;1.25;;
30515;SDS011;17297;54.022;10.760;2022-09-13T08:38:35;2.72;;;0.90;;
30515;SDS011;17297;54.022;10.760;2022-09-13T08:41:01;3.05;;;1.08;;
30515;SDS011;17297;54.022;10.760;2022-09-13T08:43:36;2.00;;;0.85;;
30515;SDS011;17297;54.022;10.760;2022-09-13T08:48:33;1.00;;;0.82;;
30515;SDS011;17297;54.022;10.760;2022-09-13T08:51:08;1.75;;;0.82;;
30515;SDS011;17297;54.022;10.760;2022-09-13T08:53:47;3.60;;;1.08;;
30515;SDS011;17297;54.022;10.760;2022-09-13T08:58:51;2.17;;;1.05;;
30515;SDS011;17297;54.022;10.760;2022-09-13T09:04:01;1.58;;;1.42;;
30515;SDS011;17297;54.022;10.760;2022-09-13T09:06:36;0.68;;;0.60;;
30515;SDS011;17297;54.022;10.760;2022-09-13T09:09:05;1.65;;;0.90;;
30515;SDS011;17297;54.022;10.760;2022-09-13T09:14:14;1.15;;;0.80;;
30515;SDS011;17297;54.022;10.760;2022-09-13T09:16:52;2.70;;;0.90;;
30515;SDS011;17297;54.022;10.760;2022-09-13T09:19:28;2.88;;;0.73;;
30515;SDS011;17297;54.022;10.760;2022-09-13T09:21:58;1.02;;;0.60;;
30515;SDS011;17297;54.022;10.760;2022-09-13T09:24:31;2.33;;;0.95;;
30515;SDS011;17297;54.022;10.760;2022-09-13T09:27:01;1.20;;;0.80;;
30515;SDS011;17297;54.022;10.760;2022-09-13T09:29:39;1.42;;;0.90;;
30515;SDS011;17297;54.022;10.760;2022-09-13T09:38:00;1.27;;;0.70;;
30515;SDS011;17297;54.022;10.760;2022-09-13T09:40:38;3.88;;;1.42;;
30515;SDS011;17297;54.022;10.760;2022-09-13T09:43:11;1.42;;;0.75;;
30515;SDS011;17297;54.022;10.760;2022-09-13T09:45:42;2.72;;;0.90;;
30515;SDS011;17297;54.022;10.760;2022-09-13T09:48:21;1.77;;;0.77;;
30515;SDS011;17297;54.022;10.760;2022-09-13T09:50:51;2.05;;;0.70;;
30515;SDS011;17297;54.022;10.760;2022-09-13T09:53:26;2.30;;;0.80;;
30515;SDS011;17297;54.022;10.760;2022-09-13T09:55:59;2.95;;;0.95;;
30515;SDS011;17297;54.022;10.760;2022-09-13T10:01:18;4.25;;;0.80;;
30515;SDS011;17297;54.022;10.760;2022-09-13T10:03:48;1.88;;;0.80;;
30515;SDS011;17297;54.022;10.760;2022-09-13T10:06:20;2.22;;;0.95;;
30515;SDS011;17297;54.022;10.760;2022-09-13T10:08:56;3.95;;;0.90;;
30515;SDS011;17297;54.022;10.760;2022-09-13T10:11:36;1.88;;;0.65;;
30515;SDS011;17297;54.022;10.760;2022-09-13T10:17:05;6.22;;;1.73;;
30515;SDS011;17297;54.022;10.760;2022-09-13T10:19:30;3.30;;;1.63;;
30515;SDS011;17297;54.022;10.760;2022-09-13T10:22:02;1.73;;;1.02;;
30515;SDS011;17297;54.022;10.760;2022-09-13T10:24:33;1.83;;;0.68;;
30515;SDS011;17297;54.022;10.760;2022-09-13T10:26:59;1.38;;;0.77;;
30515;SDS011;17297;54.022;10.760;2022-09-13T10:29:25;3.20;;;1.33;;
30515;SDS011;17297;54.022;10.760;2022-09-13T10:31:52;2.40;;;0.93;;
30515;SDS011;17297;54.022;10.760;2022-09-13T10:34:22;3.50;;;1.33;;
30515;SDS011;17297;54.022;10.760;2022-09-13T10:37:02;3.97;;;0.90;;
30515;SDS011;17297;54.022;10.760;2022-09-13T10:39:36;1.55;;;0.73;;
30515;SDS011;17297;54.022;10.760;2022-09-13T10:42:14;1.13;;;0.60;;
30515;SDS011;17297;54.022;10.760;2022-09-13T10:45:06;0.80;;;0.80;;
30515;SDS011;17297;54.022;10.760;2022-09-13T10:50:20;1.73;;;0.80;;
30515;SDS011;17297;54.022;10.760;2022-09-13T11:00:29;0.88;;;0.80;;
30515;SDS011;17297;54.022;10.760;2022-09-13T11:06:55;1.20;;;0.60;;
30515;SDS011;17297;54.022;10.760;2022-09-13T11:09:42;1.08;;;0.80;;
30515;SDS011;17297;54.022;10.760;2022-09-13T11:18:19;2.30;;;0.90;;
30515;SDS011;17297;54.022;10.760;2022-09-13T11:23:55;3.08;;;0.70;;
30515;SDS011;17297;54.022;10.760;2022-09-13T11:29:13;3.25;;;1.10;;
30515;SDS011;17297;54.022;10.760;2022-09-13T11:31:56;3.38;;;0.93;;
30515;SDS011;17297;54.022;10.760;2022-09-13T11:47:55;0.95;;;0.77;;
30515;SDS011;17297;54.022;10.760;2022-09-13T11:51:03;2.05;;;0.95;;
30515;SDS011;17297;54.022;10.760;2022-09-13T11:59:35;0.82;;;0.70;;
30515;SDS011;17297;54.022;10.760;2022-09-13T12:02:11;2.83;;;0.85;;
30515;SDS011;17297;54.022;10.760;2022-09-13T12:04:46;1.20;;;0.80;;
30515;SDS011;17297;54.022;10.760;2022-09-13T12:07:30;2.78;;;0.90;;
30515;SDS011;17297;54.022;10.760;2022-09-13T12:10:06;3.38;;;1.23;;
30515;SDS011;17297;54.022;10.760;2022-09-13T12:12:41;2.25;;;0.88;;
30515;SDS011;17297;54.022;10.760;2022-09-13T12:15:15;1.40;;;0.60;;
30515;SDS011;17297;54.022;10.760;2022-09-13T12:17:56;2.15;;;0.60;;
30515;SDS011;17297;54.022;10.760;2022-09-13T12:22:58;1.17;;;1.08;;
30515;SDS011;17297;54.022;10.760;2022-09-13T12:25:31;0.82;;;0.77;;
30515;SDS011;17297;54.022;10.760;2022-09-13T12:28:25;1.27;;;0.70;;
30515;SDS011;17297;54.022;10.760;2022-09-13T12:30:53;1.17;;;1.00;;
30515;SDS011;17297;54.022;10.760;2022-09-13T12:33:23;1.98;;;0.70;;
30515;SDS011;17297;54.022;10.760;2022-09-13T12:36:11;1.25;;;0.50;;
30515;SDS011;17297;54.022;10.760;2022-09-13T12:41:42;1.40;;;0.70;;
30515;SDS011;17297;54.022;10.760;2022-09-13T12:50:08;3.40;;;0.57;;
30515;SDS011;17297;54.022;10.760;2022-09-13T12:52:49;0.88;;;0.63;;
30515;SDS011;17297;54.022;10.760;2022-09-13T12:55:37;0.95;;;0.60;;
30515;SDS011;17297;54.022;10.760;2022-09-13T13:01:17;1.98;;;0.75;;
30515;SDS011;17297;54.022;10.760;2022-09-13T13:03:50;0.50;;;0.50;;
30515;SDS011;17297;54.022;10.760;2022-09-13T13:09:36;0.90;;;0.68;;
30515;SDS011;17297;54.022;10.760;2022-09-13T13:12:06;0.60;;;0.40;;
30515;SDS011;17297;54.022;10.760;2022-09-13T13:23:15;0.50;;;0.50;;
30515;SDS011;17297;54.022;10.760;2022-09-13T13:39:49;0.88;;;0.60;;
30515;SDS011;17297;54.022;10.760;2022-09-13T13:59:44;0.88;;;0.57;;
30515;SDS011;17297;54.022;10.760;2022-09-13T14:02:14;1.50;;;0.80;;
30515;SDS011;17297;54.022;10.760;2022-09-13T14:16:04;1.13;;;0.60;;
30515;SDS011;17297;54.022;10.760;2022-09-13T14:21:26;2.13;;;0.82;;
30515;SDS011;17297;54.022;10.760;2022-09-13T14:26:45;1.88;;;0.90;;
30515;SDS011;17297;54.022;10.760;2022-09-13T14:29:15;1.45;;;0.70;;
30515;SDS011;17297;54.022;10.760;2022-09-13T14:31:44;6.15;;;1.27;;
30515;SDS011;17297;54.022;10.760;2022-09-13T14:34:26;0.88;;;0.60;;
30515;SDS011;17297;54.022;10.760;2022-09-13T14:36:59;1.93;;;0.60;;
30515;SDS011;17297;54.022;10.760;2022-09-13T14:39:27;1.42;;;0.68;;
30515;SDS011;17297;54.022;10.760;2022-09-13T14:42:36;1.33;;;0.60;;
30515;SDS011;17297;54.022;10.760;2022-09-13T14:44:46;4.32;;;1.27;;
30515;SDS011;17297;54.022;10.760;2022-09-13T14:47:15;1.45;;;0.90;;
30515;SDS011;17297;54.022;10.760;2022-09-13T14:50:13;2.65;;;0.85;;
30515;SDS011;17297;54.022;10.760;2022-09-13T14:52:44;4.20;;;0.98;;
30515;SDS011;17297;54.022;10.760;2022-09-13T14:55:15;2.15;;;1.60;;
30515;SDS011;17297;54.022;10.760;2022-09-13T14:57:52;3.58;;;1.00;;
30515;SDS011;17297;54.022;10.760;2022-09-13T15:00:27;2.30;;;0.95;;
30515;SDS011;17297;54.022;10.760;2022-09-13T15:03:00;2.78;;;0.85;;
30515;SDS011;17297;54.022;10.760;2022-09-13T15:05:30;1.73;;;0.85;;
30515;SDS011;17297;54.022;10.760;2022-09-13T15:07:57;4.18;;;1.83;;
30515;SDS011;17297;54.022;10.760;2022-09-13T15:10:24;3.00;;;1.20;;
30515;SDS011;17297;54.022;10.760;2022-09-13T15:12:53;0.70;;;0.70;;
30515;SDS011;17297;54.022;10.760;2022-09-13T15:15:35;2.35;;;1.33;;
30515;SDS011;17297;54.022;10.760;2022-09-13T15:20:45;1.17;;;0.95;;
30515;SDS011;17297;54.022;10.760;2022-09-13T15:23:19;0.90;;;0.70;;
30515;SDS011;17297;54.022;10.760;2022-09-13T15:25:51;1.73;;;0.80;;
30515;SDS011;17297;54.022;10.760;2022-09-13T15:28:26;1.38;;;0.70;;
30515;SDS011;17297;54.022;10.760;2022-09-13T15:30:54;2.17;;;1.65;;
30515;SDS011;17297;54.022;10.760;2022-09-13T15:33:23;1.73;;;0.68;;
30515;SDS011;17297;54.022;10.760;2022-09-13T15:36:14;1.42;;;0.80;;
30515;SDS011;17297;54.022;10.760;2022-09-13T15:41:33;2.60;;;0.90;;
30515;SDS011;17297;54.022;10.760;2022-09-13T15:44:04;0.75;;;0.60;;
30515;SDS011;17297;54.022;10.760;2022-09-13T15:46:31;2.08;;;1.52;;
30515;SDS011;17297;54.022;10.760;2022-09-13T15:49:02;2.55;;;1.10;;
30515;SDS011;17297;54.022;10.760;2022-09-13T15:51:30;2.80;;;0.90;;
30515;SDS011;17297;54.022;10.760;2022-09-13T15:53:55;1.92;;;1.13;;
30515;SDS011;17297;54.022;10.760;2022-09-13T15:56:26;1.90;;;0.77;;
30515;SDS011;17297;54.022;10.760;2022-09-13T15:58:56;1.25;;;0.70;;
30515;SDS011;17297;54.022;10.760;2022-09-13T16:01:21;0.85;;;0.70;;
30515;SDS011;17297;54.022;10.760;2022-09-13T16:03:47;3.33;;;1.20;;
30515;SDS011;17297;54.022;10.760;2022-09-13T16:06:12;1.55;;;0.75;;
30515;SDS011;17297;54.022;10.760;2022-09-13T16:08:38;5.18;;;1.40;;
30515;SDS011;17297;54.022;10.760;2022-09-13T16:11:04;2.40;;;1.00;;
30515;SDS011;17297;54.022;10.760;2022-09-13T16:13:30;3.45;;;1.10;;
30515;SDS011;17297;54.022;10.760;2022-09-13T16:15:56;1.65;;;1.30;;
30515;SDS011;17297;54.022;10.760;2022-09-13T16:18:22;2.25;;;1.10;;
30515;SDS011;17297;54.022;10.760;2022-09-13T16:20:47;2.20;;;0.88;;
30515;SDS011;17297;54.022;10.760;2022-09-13T16:23:13;1.67;;;0.73;;
30515;SDS011;17297;54.022;10.760;2022-09-13T16:25:39;1.80;;;0.80;;
30515;SDS011;17297;54.022;10.760;2022-09-13T16:28:04;0.90;;;0.70;;
30515;SDS011;17297;54.022;10.760;2022-09-13T16:30:30;1.00;;;0.70;;
30515;SDS011;17297;54.022;10.760;2022-09-13T16:32:57;0.80;;;0.80;;
30515;SDS011;17297;54.022;10.760;2022-09-13T16:35:25;4.43;;;1.75;;
30515;SDS011;17297;54.022;10.760;2022-09-13T16:37:52;1.77;;;0.85;;
30515;SDS011;17297;54.022;10.760;2022-09-13T16:40:19;1.67;;;0.90;;
30515;SDS011;17297;54.022;10.760;2022-09-13T16:42:45;0.55;;;0.55;;
30515;SDS011;17297;54.022;10.760;2022-09-13T16:45:10;1.73;;;0.73;;
30515;SDS011;17297;54.022;10.760;2022-09-13T16:47:36;1.77;;;0.95;;
30515;SDS011;17297;54.022;10.760;2022-09-13T16:50:03;1.27;;;0.55;;
30515;SDS011;17297;54.022;10.760;2022-09-13T16:52:30;2.33;;;1.40;;
30515;SDS011;17297;54.022;10.760;2022-09-13T16:54:57;1.98;;;0.63;;
30515;SDS011;17297;54.022;10.760;2022-09-13T16:57:23;1.65;;;0.60;;
30515;SDS011;17297;54.022;10.760;2022-09-13T16:59:48;1.20;;;0.75;;
30515;SDS011;17297;54.022;10.760;2022-09-13T17:02:17;1.52;;;0.80;;
30515;SDS011;17297;54.022;10.760;2022-09-13T17:04:44;1.40;;;0.80;;
30515;SDS011;17297;54.022;10.760;2022-09-13T17:07:11;1.30;;;0.70;;
30515;SDS011;17297;54.022;10.760;2022-09-13T17:09:37;1.33;;;1.00;;
30515;SDS011;17297;54.022;10.760;2022-09-13T17:12:05;1.83;;;1.17;;
30515;SDS011;17297;54.022;10.760;2022-09-13T17:14:32;3.85;;;1.00;;
30515;SDS011;17297;54.022;10.760;2022-09-13T17:16:57;0.88;;;0.65;;
30515;SDS011;17297;54.022;10.760;2022-09-13T17:19:24;0.75;;;0.65;;
30515;SDS011;17297;54.022;10.760;2022-09-13T17:21:52;2.17;;;1.35;;
30515;SDS011;17297;54.022;10.760;2022-09-13T17:24:21;1.00;;;0.70;;
30515;SDS011;17297;54.022;10.760;2022-09-13T17:26:49;1.00;;;0.50;;
30515;SDS011;17297;54.022;10.760;2022-09-13T17:29:15;1.40;;;0.52;;
30515;SDS011;17297;54.022;10.760;2022-09-13T17:31:41;1.02;;;0.70;;
30515;SDS011;17297;54.022;10.760;2022-09-13T17:34:07;2.15;;;0.60;;
30515;SDS011;17297;54.022;10.760;2022-09-13T17:36:37;1.23;;;0.77;;
30515;SDS011;17297;54.022;10.760;2022-09-13T17:39:04;1.08;;;0.60;;
30515;SDS011;17297;54.022;10.760;2022-09-13T17:41:30;1.77;;;0.68;;
30515;SDS011;17297;54.022;10.760;2022-09-13T17:43:55;1.58;;;0.90;;
30515;SDS011;17297;54.022;10.760;2022-09-13T17:46:22;1.02;;;0.60;;
30515;SDS011;17297;54.022;10.760;2022-09-13T17:48:49;2.38;;;0.60;;
30515;SDS011;17297;54.022;10.760;2022-09-13T17:51:17;1.08;;;0.63;;
30515;SDS011;17297;54.022;10.760;2022-09-13T17:53:45;3.08;;;1.35;;
30515;SDS011;17297;54.022;10.760;2022-09-13T17:56:16;1.17;;;0.98;;
30515;SDS011;17297;54.022;10.760;2022-09-13T17:58:43;4.03;;;1.60;;
30515;SDS011;17297;54.022;10.760;2022-09-13T18:01:08;1.58;;;0.70;;
30515;SDS011;17297;54.022;10.760;2022-09-13T18:03:35;2.33;;;0.90;;
30515;SDS011;17297;54.022;10.760;2022-09-13T18:06:02;0.50;;;0.50;;
30515;SDS011;17297;54.022;10.760;2022-09-13T18:08:29;0.75;;;0.70;;
30515;SDS011;17297;54.022;10.760;2022-09-13T18:11:03;0.65;;;0.65;;
30515;SDS011;17297;54.022;10.760;2022-09-13T18:13:30;2.15;;;1.25;;
30515;SDS011;17297;54.022;10.760;2022-09-13T18:16:04;3.85;;;1.85;;
30515;SDS011;17297;54.022;10.760;2022-09-13T18:18:32;1.20;;;0.70;;